createdAt,value
2018-04-17T00:00:59.833Z,17.77
2018-04-17T00:03:27.365Z,19.23
2018-04-17T00:05:54.882Z,40.13
2018-04-17T00:08:22.393Z,26.70
2018-04-17T00:10:50.691Z,13.97
2018-04-17T00:13:18.965Z,15.97
2018-04-17T00:15:47.253Z,14.10
2018-04-17T00:18:14.753Z,20.33
2018-04-17T00:20:42.272Z,23.97
2018-04-17T00:23:09.788Z,21.50
2018-04-17T00:25:37.361Z,20.70
2018-04-17T00:28:04.881Z,18.37
2018-04-17T00:30:32.410Z,20.97
2018-04-17T00:32:59.912Z,21.10
2018-04-17T00:35:27.456Z,21.70
2018-04-17T00:37:54.968Z,19.13
2018-04-17T00:40:22.496Z,26.70
2018-04-17T00:42:50.005Z,22.73
2018-04-17T00:45:17.525Z,19.90
2018-04-17T00:47:45.796Z,25.17
2018-04-17T00:50:14.080Z,27.63
2018-04-17T00:52:41.600Z,21.17
2018-04-17T00:55:09.127Z,21.10
2018-04-17T00:57:36.633Z,25.87
2018-04-17T01:00:04.165Z,35.03
2018-04-17T01:02:31.673Z,23.20
2018-04-17T01:04:59.215Z,18.87
2018-04-17T01:07:27.481Z,27.93
2018-04-17T01:09:55.074Z,25.60
2018-04-17T01:12:22.595Z,24.50
2018-04-17T01:14:50.104Z,22.00
2018-04-17T01:17:17.625Z,23.90
2018-04-17T01:19:45.125Z,23.07
2018-04-17T01:22:12.672Z,21.57
2018-04-17T01:24:40.174Z,26.77
2018-04-17T01:27:07.697Z,27.70
2018-04-17T01:29:35.209Z,24.70
2018-04-17T01:32:02.735Z,23.93
2018-04-17T01:34:30.236Z,19.00
2018-04-17T01:36:57.756Z,29.03
2018-04-17T01:39:26.028Z,22.23
2018-04-17T01:41:53.551Z,25.73
2018-04-17T01:44:21.058Z,23.93
2018-04-17T01:46:48.581Z,27.23
2018-04-17T01:49:16.091Z,26.40
2018-04-17T01:51:44.389Z,21.87
2018-04-17T01:54:12.663Z,27.07
2018-04-17T01:56:40.180Z,22.70
2018-04-17T01:59:08.453Z,21.77
2018-04-17T02:01:36.033Z,23.83
2018-04-17T02:04:03.532Z,28.47
2018-04-17T02:06:31.069Z,26.20
2018-04-17T02:08:58.583Z,23.50
2018-04-17T02:11:26.092Z,26.97
2018-04-17T02:13:53.616Z,29.23
2018-04-17T02:16:21.881Z,31.73
2018-04-17T02:18:49.408Z,32.43
2018-04-17T02:21:16.918Z,29.17
2018-04-17T02:23:44.436Z,28.40
2018-04-17T02:26:11.940Z,31.40
2018-04-17T02:28:39.474Z,24.97
2018-04-17T02:31:06.979Z,25.20
2018-04-17T02:33:34.514Z,27.20
2018-04-17T02:36:02.016Z,29.00
2018-04-17T02:38:29.545Z,26.87
2018-04-17T02:40:57.058Z,33.27
2018-04-17T02:43:24.580Z,31.20
2018-04-17T02:45:52.852Z,26.13
2018-04-17T02:48:20.388Z,26.90
2018-04-17T02:50:48.669Z,29.63
2018-04-17T02:53:16.191Z,28.13
2018-04-17T02:55:44.463Z,38.50
2018-04-17T02:58:11.985Z,31.40
2018-04-17T03:00:39.486Z,34.40
2018-04-17T03:03:07.017Z,30.97
2018-04-17T03:05:34.525Z,37.90
2018-04-17T03:08:02.044Z,35.13
2018-04-17T03:10:30.312Z,32.53
2018-04-17T03:12:57.840Z,33.03
2018-04-17T03:15:25.361Z,45.67
2018-04-17T03:17:53.645Z,36.70
2018-04-17T03:20:21.160Z,38.37
2018-04-17T03:22:48.664Z,31.80
2018-04-17T03:25:16.181Z,32.83
2018-04-17T03:27:44.444Z,37.07
2018-04-17T03:30:11.977Z,38.17
2018-04-17T03:32:39.505Z,34.13
2018-04-17T03:35:07.797Z,26.60
2018-04-17T03:37:36.068Z,29.30
2018-04-17T03:40:04.373Z,31.97
2018-04-17T03:42:32.645Z,27.63
2018-04-17T03:45:01.087Z,29.33
2018-04-17T03:47:28.594Z,34.13
2018-04-17T03:49:56.133Z,30.93
2018-04-17T03:52:23.645Z,28.87
2018-04-17T03:54:51.940Z,27.17
2018-04-17T03:57:19.440Z,41.27
2018-04-17T03:59:46.955Z,33.97
2018-04-17T04:02:14.478Z,36.03
2018-04-17T04:04:42.059Z,28.67
2018-04-17T04:07:09.574Z,33.10
2018-04-17T04:09:37.108Z,31.60
2018-04-17T04:12:04.609Z,46.10
2018-04-17T04:14:32.231Z,32.83
2018-04-17T04:17:12.321Z,37.43
2018-04-17T04:19:51.813Z,36.20
2018-04-17T04:22:31.099Z,33.87
2018-04-17T04:25:16.284Z,33.63
2018-04-17T04:27:44.548Z,32.93
2018-04-17T04:30:12.144Z,42.90
2018-04-17T04:32:40.473Z,36.83
2018-04-17T04:35:07.975Z,38.07
2018-04-17T04:37:35.500Z,33.97
2018-04-17T04:40:03.049Z,26.30
2018-04-17T04:42:30.573Z,35.97
2018-04-17T04:44:58.082Z,47.00
2018-04-17T04:47:26.386Z,43.10
2018-04-17T04:49:53.896Z,37.43
2018-04-17T04:52:21.429Z,36.37
2018-04-17T04:54:48.960Z,31.90
2018-04-17T04:57:16.568Z,35.40
2018-04-17T04:59:44.832Z,27.40
2018-04-17T05:02:12.349Z,36.80
2018-04-17T05:04:39.884Z,32.57
2018-04-17T05:07:08.177Z,25.60
2018-04-17T05:09:36.733Z,30.30
2018-04-17T05:12:04.261Z,31.23
2018-04-17T05:14:31.766Z,36.23
2018-04-17T05:16:59.309Z,32.57
2018-04-17T05:19:26.820Z,31.63
2018-04-17T05:21:54.752Z,31.30
2018-04-17T05:24:23.037Z,27.80
2018-04-17T05:26:51.297Z,43.80
2018-04-17T05:29:18.822Z,35.93
2018-04-17T05:31:46.320Z,33.47
2018-04-17T05:34:13.850Z,21.93
2018-04-17T05:36:41.355Z,26.77
2018-04-17T05:39:08.935Z,27.67
2018-04-17T05:41:36.445Z,21.43
2018-04-17T05:44:04.744Z,33.63
2018-04-17T05:46:33.048Z,19.73
2018-04-17T05:49:00.603Z,23.80
2018-04-17T05:51:28.860Z,21.30
2018-04-17T05:53:56.380Z,19.70
2018-04-17T05:56:23.894Z,21.60
2018-04-17T05:58:51.454Z,27.03
2018-04-17T06:01:18.956Z,18.70
2018-04-17T06:03:46.490Z,23.73
2018-04-17T06:06:13.996Z,18.97
2018-04-17T06:08:41.516Z,21.00
2018-04-17T06:11:09.012Z,18.97
2018-04-17T06:13:36.540Z,16.63
2018-04-17T06:16:04.805Z,19.50
2018-04-17T06:18:32.325Z,17.07
2018-04-17T06:20:59.824Z,15.20
2018-04-17T06:23:27.462Z,16.90
2018-04-17T06:25:54.971Z,14.10
2018-04-17T06:28:22.508Z,15.50
2018-04-17T06:30:50.021Z,15.50
2018-04-17T06:33:17.633Z,15.00
2018-04-17T06:35:45.132Z,15.10
2018-04-17T06:38:12.805Z,15.97
2018-04-17T06:40:40.300Z,14.90
2018-04-17T06:43:07.823Z,13.93
2018-04-17T06:45:36.084Z,12.67
2018-04-17T06:48:03.595Z,13.73
2018-04-17T06:50:31.113Z,15.73
2018-04-17T06:52:58.630Z,11.17
2018-04-17T06:55:26.208Z,13.40
2018-04-17T06:57:53.723Z,13.20
2018-04-17T07:00:21.246Z,16.23
2018-04-17T07:02:49.165Z,17.93
2018-04-17T07:05:16.712Z,14.03
2018-04-17T07:07:44.228Z,10.87
2018-04-17T07:10:11.748Z,16.87
2018-04-17T07:12:39.327Z,18.00
2018-04-17T07:15:06.852Z,10.60
2018-04-17T07:17:34.383Z,11.70
2018-04-17T07:20:01.927Z,16.83
2018-04-17T07:22:29.439Z,15.03
2018-04-17T07:24:56.979Z,11.50
2018-04-17T07:27:24.576Z,12.13
2018-04-17T07:29:52.110Z,13.60
2018-04-17T07:32:19.621Z,14.90
2018-04-17T07:34:47.127Z,13.50
2018-04-17T07:37:15.388Z,11.57
2018-04-17T07:39:42.915Z,29.03
2018-04-17T07:42:10.424Z,8.77
2018-04-17T07:44:37.948Z,10.00
2018-04-17T07:47:17.251Z,10.10
2018-04-17T07:49:44.771Z,8.83
2018-04-17T07:52:12.344Z,8.63
2018-04-17T07:54:39.984Z,8.53
2018-04-17T07:57:08.571Z,8.67
2018-04-17T07:59:36.094Z,7.33
2018-04-17T08:02:03.613Z,9.63
2018-04-17T08:04:31.141Z,7.47
2018-04-17T08:06:58.639Z,7.25
2018-04-17T08:09:26.201Z,6.65
2018-04-17T08:11:53.715Z,8.30
2018-04-17T08:14:22.023Z,6.30
2018-04-17T08:16:49.573Z,8.85
2018-04-17T08:19:17.178Z,6.15
2018-04-17T08:21:44.699Z,6.10
2018-04-17T08:24:12.276Z,6.72
2018-04-17T08:26:39.859Z,8.93
2018-04-17T08:29:07.377Z,7.00
2018-04-17T08:31:35.767Z,7.60
2018-04-17T08:34:03.268Z,6.30
2018-04-17T08:36:30.795Z,6.00
2018-04-17T08:38:58.305Z,9.85
2018-04-17T08:41:26.588Z,6.15
2018-04-17T08:43:54.164Z,5.12
2018-04-17T08:46:21.721Z,7.45
2018-04-17T08:48:49.264Z,5.62
2018-04-17T08:51:16.848Z,6.22
2018-04-17T08:53:44.389Z,6.07
2018-04-17T08:56:12.720Z,6.18
2018-04-17T08:58:40.494Z,9.90
2018-04-17T09:01:08.024Z,5.10
2018-04-17T09:03:35.585Z,5.87
2018-04-17T09:06:03.116Z,5.80
2018-04-17T09:08:30.751Z,6.50
2018-04-17T09:10:59.064Z,7.65
2018-04-17T09:13:26.646Z,7.87
2018-04-17T09:15:54.172Z,12.57
2018-04-17T09:18:21.716Z,11.00
2018-04-17T09:20:49.259Z,9.37
2018-04-17T09:23:16.782Z,12.50
2018-04-17T09:25:44.351Z,10.13
2018-04-17T09:28:11.927Z,10.37
2018-04-17T09:30:40.221Z,12.63
2018-04-17T09:33:07.747Z,11.20
2018-04-17T09:35:35.326Z,10.10
2018-04-17T09:38:02.897Z,11.53
2018-04-17T09:40:30.420Z,12.00
2018-04-17T09:42:58.706Z,12.13
2018-04-17T09:45:27.124Z,15.80
2018-04-17T09:47:54.645Z,20.60
2018-04-17T09:50:22.305Z,16.70
2018-04-17T09:52:49.935Z,18.50
2018-04-17T09:55:17.456Z,19.60
2018-04-17T09:57:44.986Z,22.70
2018-04-17T10:00:12.521Z,20.70
2018-04-17T10:02:40.022Z,21.23
2018-04-17T10:05:07.524Z,20.13
2018-04-17T10:07:35.065Z,22.97
2018-04-17T10:10:02.605Z,30.63
2018-04-17T10:12:30.420Z,25.33
2018-04-17T10:14:57.968Z,23.80
2018-04-17T10:17:26.383Z,27.43
2018-04-17T10:19:53.916Z,23.60
2018-04-17T10:22:21.452Z,29.73
2018-04-17T10:24:48.957Z,24.93
2018-04-17T10:27:16.490Z,30.20
2018-04-17T10:29:44.146Z,28.70
2018-04-17T10:32:11.709Z,32.33
2018-04-17T10:34:39.221Z,24.90
2018-04-17T10:37:06.773Z,26.63
2018-04-17T10:39:34.321Z,21.63
2018-04-17T10:42:02.035Z,21.37
2018-04-17T10:44:30.371Z,21.27
2018-04-17T10:46:58.745Z,21.13
2018-04-17T10:49:26.273Z,19.63
2018-04-17T10:51:53.817Z,18.67
2018-04-17T10:54:22.100Z,13.33
2018-04-17T10:56:50.411Z,20.93
2018-04-17T10:59:17.952Z,16.80
2018-04-17T11:01:46.253Z,14.70
2018-04-17T11:04:14.551Z,17.50
2018-04-17T11:06:42.083Z,20.27
2018-04-17T11:09:09.584Z,22.90
2018-04-17T11:11:37.988Z,18.77
2018-04-17T11:14:05.494Z,25.37
2018-04-17T11:16:33.031Z,23.97
2018-04-17T11:19:00.601Z,29.63
2018-04-17T11:21:28.120Z,18.67
2018-04-17T11:23:55.628Z,20.43
2018-04-17T11:26:23.938Z,19.33
2018-04-17T11:28:51.512Z,24.27
2018-04-17T11:31:19.030Z,19.90
2018-04-17T11:33:46.571Z,22.33
2018-04-17T11:36:14.173Z,25.00
2018-04-17T11:38:41.698Z,21.13
2018-04-17T11:41:09.319Z,23.90
2018-04-17T11:43:36.831Z,20.53
2018-04-17T11:46:05.103Z,22.70
2018-04-17T11:48:32.623Z,26.23
2018-04-17T11:51:00.143Z,25.70
2018-04-17T11:53:28.564Z,25.03
2018-04-17T11:55:56.081Z,21.13
2018-04-17T11:58:23.605Z,21.23
2018-04-17T12:00:51.105Z,21.90
2018-04-17T12:03:18.660Z,17.63
2018-04-17T12:05:46.198Z,21.70
2018-04-17T12:08:14.540Z,17.13
2018-04-17T12:10:42.116Z,32.13
2018-04-17T12:13:09.648Z,23.57
2018-04-17T12:15:37.334Z,19.53
2018-04-17T12:18:04.869Z,20.70
2018-04-17T12:20:32.369Z,18.07
2018-04-17T12:22:59.996Z,19.10
2018-04-17T12:25:30.221Z,21.27
2018-04-17T12:27:57.726Z,16.00
2018-04-17T12:30:26.196Z,24.87
2018-04-17T12:32:53.716Z,21.77
2018-04-17T12:35:21.277Z,23.00
2018-04-17T12:37:48.809Z,18.73
2018-04-17T12:40:16.382Z,22.00
2018-04-17T12:42:43.911Z,24.07
2018-04-17T12:45:11.514Z,19.20
2018-04-17T12:47:39.789Z,19.27
2018-04-17T12:50:07.432Z,19.03
2018-04-17T12:52:35.336Z,25.87
2018-04-17T12:55:02.889Z,20.40
2018-04-17T12:57:30.397Z,19.80
2018-04-17T12:59:57.985Z,20.50
2018-04-17T13:02:25.510Z,19.47
2018-04-17T13:04:53.131Z,17.50
2018-04-17T13:07:20.644Z,23.63
2018-04-17T13:09:48.322Z,20.60
2018-04-17T13:12:15.824Z,21.40
2018-04-17T13:14:43.344Z,25.13
2018-04-17T13:17:11.611Z,20.13
2018-04-17T13:19:39.140Z,22.00
2018-04-17T13:22:06.655Z,22.40
2018-04-17T13:24:34.200Z,22.63
2018-04-17T13:27:01.717Z,17.33
2018-04-17T13:29:29.987Z,19.80
2018-04-17T13:31:57.623Z,19.20
2018-04-17T13:34:25.263Z,21.60
2018-04-17T13:36:53.074Z,22.27
2018-04-17T13:39:20.660Z,17.97
2018-04-17T13:41:48.181Z,17.37
2018-04-17T13:44:16.512Z,30.83
2018-04-17T13:46:44.039Z,22.13
2018-04-17T13:49:12.331Z,25.63
2018-04-17T13:51:40.739Z,15.87
2018-04-17T13:54:08.315Z,15.77
2018-04-17T13:56:35.845Z,16.40
2018-04-17T13:59:03.353Z,19.60
2018-04-17T14:01:31.113Z,14.57
2018-04-17T14:03:59.490Z,18.17
2018-04-17T14:06:27.792Z,16.50
2018-04-17T14:08:55.395Z,19.77
2018-04-17T14:11:22.947Z,22.23
2018-04-17T14:13:50.467Z,24.13
2018-04-17T14:16:18.000Z,20.50
2018-04-17T14:18:45.528Z,21.00
2018-04-17T14:21:13.111Z,18.43
2018-04-17T14:23:40.899Z,21.00
2018-04-17T14:26:09.502Z,26.83
2018-04-17T14:28:38.024Z,19.20
2018-04-17T14:31:05.540Z,15.87
2018-04-17T14:33:33.221Z,16.83
2018-04-17T14:36:00.724Z,16.00
2018-04-17T14:38:28.461Z,18.27
2018-04-17T14:40:56.765Z,18.37
2018-04-17T14:43:25.149Z,15.53
2018-04-17T14:45:52.831Z,20.20
2018-04-17T14:48:21.187Z,22.17
2018-04-17T14:50:48.838Z,19.43
2018-04-17T14:53:16.380Z,16.43
2018-04-17T14:55:44.849Z,15.60
2018-04-17T14:58:12.447Z,15.63
2018-04-17T15:00:40.733Z,16.67
2018-04-17T15:03:08.309Z,15.20
2018-04-17T15:05:36.576Z,17.23
2018-04-17T15:08:04.109Z,18.13
2018-04-17T15:10:31.605Z,19.00
2018-04-17T15:12:59.138Z,13.90
2018-04-17T15:15:26.636Z,14.60
2018-04-17T15:17:54.148Z,17.97
2018-04-17T15:20:22.430Z,14.60
2018-04-17T15:22:50.736Z,15.37
2018-04-17T15:25:18.281Z,20.67
2018-04-17T15:27:45.782Z,14.70
2018-04-17T15:30:13.324Z,18.77
2018-04-17T15:32:40.933Z,14.83
2018-04-17T15:35:08.602Z,15.40
2018-04-17T15:37:36.357Z,18.00
2018-04-17T15:40:04.709Z,18.33
2018-04-17T15:42:32.229Z,14.13
2018-04-17T15:45:00.518Z,19.10
2018-04-17T15:47:28.850Z,16.47
2018-04-17T15:49:56.374Z,17.07
2018-04-17T15:52:23.922Z,12.60
2018-04-17T15:54:51.445Z,17.00
2018-04-17T15:57:18.964Z,16.13
2018-04-17T15:59:46.553Z,14.90
2018-04-17T16:02:14.329Z,15.33
2018-04-17T16:04:41.860Z,17.60
2018-04-17T16:07:09.488Z,14.73
2018-04-17T16:09:37.829Z,16.73
2018-04-17T16:12:05.621Z,14.03
2018-04-17T16:14:33.264Z,12.30
2018-04-17T16:17:00.760Z,17.30
2018-04-17T16:19:28.334Z,16.40
2018-04-17T16:21:56.070Z,15.10
2018-04-17T16:24:23.592Z,19.67
2018-04-17T16:26:51.124Z,21.13
2018-04-17T16:29:18.681Z,18.97
2018-04-17T16:31:46.215Z,14.13
2018-04-17T16:34:13.735Z,16.77
2018-04-17T16:36:41.253Z,13.70
2018-04-17T16:39:08.758Z,12.67
2018-04-17T16:41:36.477Z,15.43
2018-04-17T16:44:04.013Z,17.93
2018-04-17T16:46:31.796Z,13.77
2018-04-17T16:48:59.305Z,15.77
2018-04-17T16:51:26.862Z,14.90
2018-04-17T16:53:54.384Z,19.20
2018-04-17T16:56:22.677Z,22.23
2018-04-17T16:58:50.945Z,14.47
2018-04-17T17:01:18.477Z,15.60
2018-04-17T17:03:46.119Z,22.50
2018-04-17T17:06:13.638Z,17.10
2018-04-17T17:08:41.149Z,13.10
2018-04-17T17:11:09.448Z,16.50
2018-04-17T17:13:36.958Z,17.83
2018-04-17T17:16:04.523Z,13.70
2018-04-17T17:18:32.068Z,22.33
2018-04-17T17:20:59.580Z,14.67
2018-04-17T17:23:27.096Z,10.03
2018-04-17T17:25:55.395Z,18.60
2018-04-17T17:28:22.916Z,12.00
2018-04-17T17:30:50.429Z,16.40
2018-04-17T17:33:18.703Z,10.33
2018-04-17T17:35:46.210Z,10.97
2018-04-17T17:38:13.835Z,13.63
2018-04-17T17:40:41.300Z,10.67
2018-04-17T17:43:08.825Z,14.30
2018-04-17T17:45:36.328Z,17.80
2018-04-17T17:48:03.855Z,12.43
2018-04-17T17:50:31.360Z,13.53
2018-04-17T17:52:58.866Z,17.90
2018-04-17T17:55:26.622Z,17.70
2018-04-17T17:57:54.155Z,15.77
2018-04-17T18:00:21.658Z,16.83
2018-04-17T18:02:49.175Z,11.63
2018-04-17T18:05:17.449Z,14.60
2018-04-17T18:07:44.968Z,15.53
2018-04-17T18:10:12.465Z,12.70
2018-04-17T18:12:39.979Z,13.70
2018-04-17T18:15:08.261Z,10.90
2018-04-17T18:17:36.549Z,13.27
2018-04-17T18:20:04.816Z,14.07
2018-04-17T18:22:32.360Z,9.53
2018-04-17T18:24:59.866Z,13.63
2018-04-17T18:27:27.369Z,10.57
2018-04-17T18:29:54.886Z,10.33
2018-04-17T18:32:22.380Z,9.60
2018-04-17T18:34:49.903Z,16.40
2018-04-17T18:37:17.406Z,11.77
2018-04-17T18:39:44.932Z,9.10
2018-04-17T18:42:13.112Z,12.97
2018-04-17T18:44:40.693Z,18.33
2018-04-17T18:47:08.193Z,42.40
2018-04-17T18:49:35.762Z,17.80
2018-04-17T18:52:03.262Z,14.87
2018-04-17T18:54:30.793Z,19.40
2018-04-17T18:56:58.295Z,15.47
2018-04-17T18:59:25.849Z,16.83
2018-04-17T19:01:53.360Z,11.60
2018-04-17T19:04:21.642Z,12.70
2018-04-17T19:06:49.139Z,11.57
2018-04-17T19:09:16.660Z,10.67
2018-04-17T19:11:44.147Z,15.43
2018-04-17T19:14:11.655Z,8.43
2018-04-17T19:16:39.164Z,15.30
2018-04-17T19:19:06.683Z,15.53
2018-04-17T19:21:34.194Z,9.77
2018-04-17T19:24:01.722Z,10.07
2018-04-17T19:26:30.061Z,13.10
2018-04-17T19:28:57.588Z,11.67
2018-04-17T19:31:25.875Z,15.83
2018-04-17T19:33:53.380Z,13.77
2018-04-17T19:36:20.900Z,15.70
2018-04-17T19:38:48.416Z,12.40
2018-04-17T19:41:15.954Z,13.90
2018-04-17T19:43:44.221Z,13.37
2018-04-17T19:46:11.745Z,15.80
2018-04-17T19:48:39.240Z,14.40
2018-04-17T19:51:06.774Z,17.43
2018-04-17T19:53:34.272Z,24.63
2018-04-17T19:56:01.815Z,21.63
2018-04-17T19:58:29.317Z,26.47
2018-04-17T20:00:56.859Z,18.60
2018-04-17T20:03:24.353Z,19.57
2018-04-17T20:05:51.874Z,18.40
2018-04-17T20:08:20.139Z,18.23
2018-04-17T20:10:47.664Z,19.70
2018-04-17T20:13:15.165Z,17.03
2018-04-17T20:15:42.683Z,14.03
2018-04-17T20:18:10.965Z,21.73
2018-04-17T20:20:39.248Z,16.63
2018-04-17T20:23:06.754Z,20.87
2018-04-17T20:25:34.259Z,15.03
2018-04-17T20:28:01.789Z,19.40
2018-04-17T20:30:29.287Z,21.90
2018-04-17T20:32:56.812Z,21.90
2018-04-17T20:35:25.088Z,20.63
2018-04-17T20:37:52.620Z,16.63
2018-04-17T20:40:20.119Z,20.90
2018-04-17T20:42:47.644Z,19.40
2018-04-17T20:45:15.140Z,18.00
2018-04-17T20:47:42.686Z,21.00
2018-04-17T20:50:10.190Z,30.10
2018-04-17T20:52:37.709Z,18.70
2018-04-17T20:55:05.980Z,13.70
2018-04-17T20:57:34.468Z,21.40
2018-04-17T21:00:01.984Z,25.67
2018-04-17T21:02:29.839Z,20.07
2018-04-17T21:04:58.104Z,17.03
2018-04-17T21:07:25.643Z,19.57
2018-04-17T21:09:53.144Z,18.13
2018-04-17T21:12:20.659Z,17.13
2018-04-17T21:14:48.177Z,28.10
2018-04-17T21:17:15.706Z,24.80
2018-04-17T21:19:43.204Z,20.30
2018-04-17T21:22:10.727Z,20.40
2018-04-17T21:24:39.020Z,21.03
2018-04-17T21:27:07.292Z,21.10
2018-04-17T21:29:35.581Z,21.37
2018-04-17T21:32:03.852Z,27.97
2018-04-17T21:34:31.376Z,21.50
2018-04-17T21:36:58.876Z,21.93
2018-04-17T21:39:26.405Z,16.37
2018-04-17T21:41:53.904Z,25.80
2018-04-17T21:44:21.444Z,21.30
2018-04-17T21:46:49.732Z,19.50
2018-04-17T21:49:17.255Z,19.97
2018-04-17T21:51:44.766Z,30.80
2018-04-17T21:54:13.057Z,22.57
2018-04-17T21:56:41.332Z,24.97
2018-04-17T21:59:09.636Z,27.83
2018-04-17T22:01:37.903Z,26.63
2018-04-17T22:04:05.437Z,21.90
2018-04-17T22:06:32.945Z,22.03
2018-04-17T22:09:00.476Z,26.60
2018-04-17T22:11:27.988Z,25.50
2018-04-17T22:13:55.505Z,25.00
2018-04-17T22:16:23.013Z,24.90
2018-04-17T22:18:50.540Z,28.90
2018-04-17T22:21:18.049Z,32.70
2018-04-17T22:23:45.586Z,40.73
2018-04-17T22:26:13.095Z,40.07
2018-04-17T22:28:40.615Z,23.50
2018-04-17T22:31:08.120Z,24.73
2018-04-17T22:33:35.628Z,27.40
2018-04-17T22:36:03.146Z,26.73
2018-04-17T22:38:30.647Z,30.53
2018-04-17T22:40:58.174Z,30.07
2018-04-17T22:43:25.676Z,28.83
2018-04-17T22:45:53.192Z,27.10
2018-04-17T22:48:21.457Z,24.30
2018-04-17T22:50:48.978Z,32.60
2018-04-17T22:53:16.475Z,25.90
2018-04-17T22:55:44.002Z,33.50
2018-04-17T22:58:12.267Z,27.77
2018-04-17T23:00:39.804Z,30.53
2018-04-17T23:03:07.306Z,27.10
2018-04-17T23:05:34.825Z,31.07
2018-04-17T23:08:02.329Z,29.10
2018-04-17T23:10:29.860Z,31.60
2018-04-17T23:12:57.361Z,29.40
2018-04-17T23:15:24.894Z,26.63
2018-04-17T23:17:53.161Z,34.10
2018-04-17T23:20:20.688Z,30.70
2018-04-17T23:22:48.188Z,31.40
2018-04-17T23:25:15.715Z,36.70
2018-04-17T23:27:43.221Z,31.43
2018-04-17T23:30:10.739Z,31.77
2018-04-17T23:32:39.000Z,32.40
2018-04-17T23:35:06.491Z,27.60
2018-04-17T23:37:34.778Z,35.97
2018-04-17T23:40:03.052Z,32.40
2018-04-17T23:42:30.585Z,32.97
2018-04-17T23:44:58.082Z,33.17
2018-04-17T23:47:25.615Z,33.20
2018-04-17T23:49:53.111Z,28.03
2018-04-17T23:52:20.632Z,34.93
2018-04-17T23:54:48.899Z,36.90
2018-04-17T23:57:17.200Z,31.50
2018-04-17T23:59:45.470Z,32.23
